Homestead ARB Airport
KHST : rendu visible

Aérodrome :











RETROUVEZ-NOUS SUR...

 
LOGIN :

S'inscrire | Disclaimer

   EN    FR    IT 

 









Légende :    VFR   VFR Marginal   IFR   IFR Intensif   IFR Très Intensif
Visi : 
Plafond : 
>= 8 km
>= 3000ft
5 à 8 km
1000 à 3000 ft
1500m à 5 km
500 à 1000 ft
800 à 1500m
200 à 500 ft
< 800m
< 200 ft
Symboles :   Orages  Brouillard  Fortes neiges  Fortes précipitations  Vent > 20 kt






- Altitude de l'aérodrome : 5 ft


KHST - Homestead ARB

DERNIER METAR :
  • 311656Z AUTO 07007KT 10SM FEW180 FEW210 31/23 A3002 RMK AO2 DZB22E31 SLP169 P0000

METARs EXPIRÉS :
  • 311631Z AUTO 09007KT 10SM FEW170 FEW190 31/23 A3003 RMK AO2 DZB22E31 SLP172
  • 311622Z AUTO 10008KT 10SM -DZ FEW160 FEW200 31/23 A3003 RMK AO2 DZB22 SLP172
  • 311556Z AUTO 08006KT 10SM CLR 31/22 A3003 RMK AO2 SLP172 T03050224
  • 311456Z AUTO 06007KT 10SM FEW170 31/24 A3003 RMK AO2 DZB1359E08RAB33E42 SLP172 P0000 60000 T03060235 51008
  • 311442Z AUTO 10007KT 10SM FEW027 30/23 A3003 RMK AO2 DZB1359E08RAB33E42 SLP172
  • 311433Z AUTO 10005KT 10SM -RA FEW027 30/23 A3003 RMK AO2 DZB1359E08RAB33 SLP172
  • 311418Z AUTO 08006KT 10SM SCT027 30/23 A3003 RMK AO2 DZB1359E08 SLP172
  • 311408Z AUTO 07009KT 10SM BKN026 BKN033 30/23 A3003 RMK AO2 DZB1359E08 BKN026 V SCT SLP172

TAF TAF KHST
Valide du 31 à 11h jusqu'au 01 à 17h UTC


311100Z 3111/0117 11003KT 9999 BKN025 QNH2998INS
BECMG 3114/3115 11008KT 9999 FEW035 SCT220 QNH2997INS
BECMG 3123/3124 11003KT 9999 BKN025 QNH2999INS TX31/3118Z TN25/3111Z
FIR KZMA / Amérique du Nord



MET'MAP, la Météo Aéronautique d'un coup d'oeil ! - Copyright ORBIFLY Décembre 2007 - Disclaimer

ORBIFLY MET'MAP TEAM :

Programmation & Développement : Alexandra Zaïnal
Sur une idée originale de : Baudouin d'Aumeries
Assistance à la programmation : Marc-Olivier Méhu
Soutien technique & logistique : Manuel Goepfert

Contact : metmap@orbifly.com




SOURCES & CREDITS :

   NOAA       Earth
Advisory